sensor_id;sensor_type;location;lat;lon;timestamp;pressure;altitude;pressure_sealevel;temperature;humidity
39455;BME280;25155;41.890;23.446;2022-07-23T00:01:45;92325.34;;;20.08;44.89
39455;BME280;25155;41.890;23.446;2022-07-23T00:04:13;92325.97;;;20.05;45.30
39455;BME280;25155;41.890;23.446;2022-07-23T00:06:40;92329.72;;;20.04;45.24
39455;BME280;25155;41.890;23.446;2022-07-23T00:09:07;92330.34;;;20.01;44.87
39455;BME280;25155;41.890;23.446;2022-07-23T00:11:35;92335.47;;;19.98;45.05
39455;BME280;25155;41.890;23.446;2022-07-23T00:14:02;92336.88;;;19.86;45.89
39455;BME280;25155;41.890;23.446;2022-07-23T00:16:29;92334.38;;;19.81;46.23
39455;BME280;25155;41.890;23.446;2022-07-23T00:18:58;92339.81;;;19.76;46.34
39455;BME280;25155;41.890;23.446;2022-07-23T00:21:28;92342.25;;;19.72;45.79
39455;BME280;25155;41.890;23.446;2022-07-23T00:23:55;92340.72;;;19.71;46.17
39455;BME280;25155;41.890;23.446;2022-07-23T00:26:22;92344.28;;;19.67;45.83
39455;BME280;25155;41.890;23.446;2022-07-23T00:28:49;92337.72;;;19.64;45.77
39455;BME280;25155;41.890;23.446;2022-07-23T00:31:17;92334.16;;;19.60;45.47
39455;BME280;25155;41.890;23.446;2022-07-23T00:33:44;92333.69;;;19.58;45.45
39455;BME280;25155;41.890;23.446;2022-07-23T00:36:13;92331.66;;;19.55;45.32
39455;BME280;25155;41.890;23.446;2022-07-23T00:38:40;92327.75;;;19.52;45.46
39455;BME280;25155;41.890;23.446;2022-07-23T00:41:07;92334.13;;;19.51;45.53
39455;BME280;25155;41.890;23.446;2022-07-23T00:43:34;92326.00;;;19.48;45.28
39455;BME280;25155;41.890;23.446;2022-07-23T00:46:02;92331.94;;;19.45;45.31
39455;BME280;25155;41.890;23.446;2022-07-23T00:48:29;92327.25;;;19.42;45.64
39455;BME280;25155;41.890;23.446;2022-07-23T00:50:56;92327.41;;;19.36;46.77
39455;BME280;25155;41.890;23.446;2022-07-23T00:53:25;92333.59;;;19.23;47.59
39455;BME280;25155;41.890;23.446;2022-07-23T00:55:53;92331.06;;;19.18;47.04
39455;BME280;25155;41.890;23.446;2022-07-23T00:58:20;92331.69;;;19.15;46.95
39455;BME280;25155;41.890;23.446;2022-07-23T01:00:48;92330.13;;;19.14;46.59
39455;BME280;25155;41.890;23.446;2022-07-23T01:03:16;92325.44;;;19.11;47.68
39455;BME280;25155;41.890;23.446;2022-07-23T01:05:44;92336.91;;;18.97;48.69
39455;BME280;25155;41.890;23.446;2022-07-23T01:08:12;92328.13;;;18.88;48.25
39455;BME280;25155;41.890;23.446;2022-07-23T01:10:41;92333.25;;;18.85;47.51
39455;BME280;25155;41.890;23.446;2022-07-23T01:13:10;92325.44;;;18.79;47.44
39455;BME280;25155;41.890;23.446;2022-07-23T01:15:38;92342.06;;;18.80;47.25
39455;BME280;25155;41.890;23.446;2022-07-23T01:18:06;92337.41;;;18.77;46.79
39455;BME280;25155;41.890;23.446;2022-07-23T01:20:34;92328.97;;;18.75;47.04
39455;BME280;25155;41.890;23.446;2022-07-23T01:23:03;92333.31;;;18.71;46.94
39455;BME280;25155;41.890;23.446;2022-07-23T01:25:30;92332.56;;;18.70;47.12
39455;BME280;25155;41.890;23.446;2022-07-23T01:27:57;92329.91;;;18.70;46.62
39455;BME280;25155;41.890;23.446;2022-07-23T01:30:24;92330.22;;;18.69;46.41
39455;BME280;25155;41.890;23.446;2022-07-23T01:32:52;92327.06;;;18.67;46.91
39455;BME280;25155;41.890;23.446;2022-07-23T01:35:19;92327.06;;;18.67;46.59
39455;BME280;25155;41.890;23.446;2022-07-23T01:37:46;92330.00;;;18.65;46.36
39455;BME280;25155;41.890;23.446;2022-07-23T01:40:15;92326.13;;;18.62;46.25
39455;BME280;25155;41.890;23.446;2022-07-23T01:42:42;92328.28;;;18.60;46.31
39455;BME280;25155;41.890;23.446;2022-07-23T01:45:10;92331.41;;;18.62;46.43
39455;BME280;25155;41.890;23.446;2022-07-23T01:47:37;92328.91;;;18.57;46.96
39455;BME280;25155;41.890;23.446;2022-07-23T01:50:05;92330.41;;;18.50;47.14
39455;BME280;25155;41.890;23.446;2022-07-23T01:52:33;92332.88;;;18.46;46.67
39455;BME280;25155;41.890;23.446;2022-07-23T01:55:00;92335.63;;;18.41;46.48
39455;BME280;25155;41.890;23.446;2022-07-23T01:57:29;92330.47;;;18.36;46.31
39455;BME280;25155;41.890;23.446;2022-07-23T01:59:56;92328.44;;;18.33;46.74
39455;BME280;25155;41.890;23.446;2022-07-23T02:02:24;92341.16;;;18.31;46.52
39455;BME280;25155;41.890;23.446;2022-07-23T02:04:51;92340.94;;;18.27;46.63
39455;BME280;25155;41.890;23.446;2022-07-23T02:07:18;92334.72;;;18.23;46.88
39455;BME280;25155;41.890;23.446;2022-07-23T02:09:45;92337.97;;;18.20;46.82
39455;BME280;25155;41.890;23.446;2022-07-23T02:12:12;92338.25;;;18.18;46.83
39455;BME280;25155;41.890;23.446;2022-07-23T02:14:41;92343.34;;;18.15;46.91
39455;BME280;25155;41.890;23.446;2022-07-23T02:17:08;92304.13;;;17.85;46.92
39455;BME280;25155;41.890;23.446;2022-07-23T02:19:36;92341.59;;;18.10;47.01
39455;BME280;25155;41.890;23.446;2022-07-23T02:22:03;92352.00;;;18.06;46.90
39455;BME280;25155;41.890;23.446;2022-07-23T02:24:30;92344.38;;;18.05;47.06
39455;BME280;25155;41.890;23.446;2022-07-23T02:26:58;92350.06;;;17.98;48.93
39455;BME280;25155;41.890;23.446;2022-07-23T02:29:25;92360.25;;;17.91;49.07
39455;BME280;25155;41.890;23.446;2022-07-23T02:31:53;92353.19;;;17.86;48.80
39455;BME280;25155;41.890;23.446;2022-07-23T02:34:21;92351.63;;;17.85;48.29
39455;BME280;25155;41.890;23.446;2022-07-23T02:36:48;92353.31;;;17.81;48.38
39455;BME280;25155;41.890;23.446;2022-07-23T02:39:15;92356.53;;;17.78;48.05
39455;BME280;25155;41.890;23.446;2022-07-23T02:41:43;92358.97;;;17.75;47.77
39455;BME280;25155;41.890;23.446;2022-07-23T02:44:10;92349.00;;;17.71;48.31
39455;BME280;25155;41.890;23.446;2022-07-23T02:46:37;92356.56;;;17.64;48.48
39455;BME280;25155;41.890;23.446;2022-07-23T02:49:06;92358.22;;;17.60;48.28
39455;BME280;25155;41.890;23.446;2022-07-23T02:51:33;92354.81;;;17.60;48.20
39455;BME280;25155;41.890;23.446;2022-07-23T02:54:01;92360.66;;;17.57;48.76
39455;BME280;25155;41.890;23.446;2022-07-23T02:56:28;92354.41;;;17.52;48.43
39455;BME280;25155;41.890;23.446;2022-07-23T02:58:55;92359.69;;;17.52;48.52
39455;BME280;25155;41.890;23.446;2022-07-23T03:01:22;92361.94;;;17.45;48.25
39455;BME280;25155;41.890;23.446;2022-07-23T03:03:50;92375.03;;;17.50;48.45
39455;BME280;25155;41.890;23.446;2022-07-23T03:06:19;92379.63;;;17.45;48.74
39455;BME280;25155;41.890;23.446;2022-07-23T03:08:49;92378.44;;;17.37;48.71
39455;BME280;25155;41.890;23.446;2022-07-23T03:11:16;92376.09;;;17.36;48.75
39455;BME280;25155;41.890;23.446;2022-07-23T03:13:43;92378.53;;;17.32;48.39
39455;BME280;25155;41.890;23.446;2022-07-23T03:16:11;92375.53;;;17.25;48.36
39455;BME280;25155;41.890;23.446;2022-07-23T03:18:38;92381.28;;;17.27;48.29
39455;BME280;25155;41.890;23.446;2022-07-23T03:21:05;92383.44;;;17.25;48.31
39455;BME280;25155;41.890;23.446;2022-07-23T03:23:34;92385.38;;;17.19;48.43
39455;BME280;25155;41.890;23.446;2022-07-23T03:26:01;92387.22;;;17.19;48.49
39455;BME280;25155;41.890;23.446;2022-07-23T03:28:29;92387.91;;;17.10;50.07
39455;BME280;25155;41.890;23.446;2022-07-23T03:30:56;92392.78;;;17.03;49.56
39455;BME280;25155;41.890;23.446;2022-07-23T03:33:24;92399.41;;;17.01;49.77
39455;BME280;25155;41.890;23.446;2022-07-23T03:35:51;92401.84;;;16.97;49.63
39455;BME280;25155;41.890;23.446;2022-07-23T03:38:18;92396.56;;;16.97;49.72
39455;BME280;25155;41.890;23.446;2022-07-23T03:40:47;92393.94;;;16.97;49.40
39455;BME280;25155;41.890;23.446;2022-07-23T03:43:14;92403.41;;;16.98;49.89
39455;BME280;25155;41.890;23.446;2022-07-23T03:45:42;92398.16;;;16.98;49.81
39455;BME280;25155;41.890;23.446;2022-07-23T03:48:09;92397.06;;;16.99;49.57
39455;BME280;25155;41.890;23.446;2022-07-23T03:50:36;92394.41;;;16.99;49.89
39455;BME280;25155;41.890;23.446;2022-07-23T03:53:04;92392.88;;;16.98;49.93
39455;BME280;25155;41.890;23.446;2022-07-23T03:55:31;92389.72;;;16.96;49.96
39455;BME280;25155;41.890;23.446;2022-07-23T03:58:00;92391.78;;;16.99;49.75
39455;BME280;25155;41.890;23.446;2022-07-23T04:00:28;92396.00;;;17.00;49.77
39455;BME280;25155;41.890;23.446;2022-07-23T04:02:55;92392.28;;;17.01;50.03
39455;BME280;25155;41.890;23.446;2022-07-23T04:05:23;92392.28;;;17.01;50.55
39455;BME280;25155;41.890;23.446;2022-07-23T04:07:50;92393.66;;;16.99;51.09
39455;BME280;25155;41.890;23.446;2022-07-23T04:10:17;92403.41;;;16.98;50.78
39455;BME280;25155;41.890;23.446;2022-07-23T04:12:44;92411.00;;;17.00;50.57
39455;BME280;25155;41.890;23.446;2022-07-23T04:15:13;92402.63;;;16.97;51.08
39455;BME280;25155;41.890;23.446;2022-07-23T04:17:41;92409.16;;;17.00;51.24
39455;BME280;25155;41.890;23.446;2022-07-23T04:20:10;92402.03;;;17.01;51.07
39455;BME280;25155;41.890;23.446;2022-07-23T04:22:38;92398.63;;;17.00;50.95
39455;BME280;25155;41.890;23.446;2022-07-23T04:25:05;92410.03;;;17.09;50.91
39455;BME280;25155;41.890;23.446;2022-07-23T04:27:33;92399.50;;;17.09;50.49
39455;BME280;25155;41.890;23.446;2022-07-23T04:30:00;92403.13;;;17.13;50.47
39455;BME280;25155;41.890;23.446;2022-07-23T04:32:29;92403.34;;;17.17;50.82
39455;BME280;25155;41.890;23.446;2022-07-23T04:34:56;92403.81;;;17.19;50.70
39455;BME280;25155;41.890;23.446;2022-07-23T04:37:23;92405.59;;;17.24;51.55
39455;BME280;25155;41.890;23.446;2022-07-23T04:39:51;92404.22;;;17.26;51.65
39455;BME280;25155;41.890;23.446;2022-07-23T04:42:18;92404.53;;;17.25;52.96
39455;BME280;25155;41.890;23.446;2022-07-23T04:44:45;92405.59;;;17.24;53.28
39455;BME280;25155;41.890;23.446;2022-07-23T04:47:13;92400.88;;;17.21;53.49
39455;BME280;25155;41.890;23.446;2022-07-23T04:49:42;92402.03;;;17.14;53.47
39455;BME280;25155;41.890;23.446;2022-07-23T04:52:09;92401.00;;;17.15;53.39
39455;BME280;25155;41.890;23.446;2022-07-23T04:54:36;92403.81;;;17.19;53.42
39455;BME280;25155;41.890;23.446;2022-07-23T04:57:04;92397.97;;;17.22;53.90
39455;BME280;25155;41.890;23.446;2022-07-23T04:59:31;92396.63;;;17.25;53.50
39455;BME280;25155;41.890;23.446;2022-07-23T05:01:58;92392.78;;;17.31;53.24
39455;BME280;25155;41.890;23.446;2022-07-23T05:04:25;92397.38;;;17.39;52.81
39455;BME280;25155;41.890;23.446;2022-07-23T05:06:54;92401.00;;;17.43;53.24
39455;BME280;25155;41.890;23.446;2022-07-23T05:09:21;92399.34;;;17.47;53.47
39455;BME280;25155;41.890;23.446;2022-07-23T05:11:49;92398.75;;;17.50;53.28
39455;BME280;25155;41.890;23.446;2022-07-23T05:14:16;92398.16;;;17.53;53.76
39455;BME280;25155;41.890;23.446;2022-07-23T05:16:43;92394.66;;;17.58;53.72
39455;BME280;25155;41.890;23.446;2022-07-23T05:19:10;92394.25;;;17.65;54.07
39455;BME280;25155;41.890;23.446;2022-07-23T05:21:38;92399.13;;;17.71;53.31
39455;BME280;25155;41.890;23.446;2022-07-23T05:24:07;92391.13;;;17.77;53.56
39455;BME280;25155;41.890;23.446;2022-07-23T05:26:34;92396.19;;;17.87;54.03
39455;BME280;25155;41.890;23.446;2022-07-23T05:29:02;92401.06;;;17.94;54.43
39455;BME280;25155;41.890;23.446;2022-07-23T05:31:30;92396.19;;;18.01;54.06
39455;BME280;25155;41.890;23.446;2022-07-23T05:33:57;92399.19;;;18.08;53.51
39455;BME280;25155;41.890;23.446;2022-07-23T05:36:25;92403.31;;;18.14;53.27
39455;BME280;25155;41.890;23.446;2022-07-23T05:38:52;92400.84;;;18.18;53.95
39455;BME280;25155;41.890;23.446;2022-07-23T05:41:21;92400.59;;;18.28;53.37
39455;BME280;25155;41.890;23.446;2022-07-23T05:43:48;92404.41;;;18.36;53.58
39455;BME280;25155;41.890;23.446;2022-07-23T05:46:15;92406.03;;;18.46;53.64
39455;BME280;25155;41.890;23.446;2022-07-23T05:48:43;92408.16;;;18.57;53.41
39455;BME280;25155;41.890;23.446;2022-07-23T05:51:11;92399.50;;;18.66;53.22
39455;BME280;25155;41.890;23.446;2022-07-23T05:53:38;92397.69;;;18.75;52.45
39455;BME280;25155;41.890;23.446;2022-07-23T05:56:06;92410.19;;;18.83;51.72
39455;BME280;25155;41.890;23.446;2022-07-23T05:58:35;92405.16;;;18.95;51.42
39455;BME280;25155;41.890;23.446;2022-07-23T06:01:02;92403.31;;;19.05;51.83
39455;BME280;25155;41.890;23.446;2022-07-23T06:03:32;92393.75;;;19.17;51.57
39455;BME280;25155;41.890;23.446;2022-07-23T06:06:00;92391.78;;;19.32;51.81
39455;BME280;25155;41.890;23.446;2022-07-23T06:08:27;92387.00;;;19.43;51.83
39455;BME280;25155;41.890;23.446;2022-07-23T06:10:54;92386.75;;;19.53;51.33
39455;BME280;25155;41.890;23.446;2022-07-23T06:13:22;92383.00;;;19.63;51.74
39455;BME280;25155;41.890;23.446;2022-07-23T06:15:50;92381.94;;;19.72;52.05
39455;BME280;25155;41.890;23.446;2022-07-23T06:18:18;92376.88;;;19.85;51.46
39455;BME280;25155;41.890;23.446;2022-07-23T06:20:45;92380.50;;;19.98;52.06
39455;BME280;25155;41.890;23.446;2022-07-23T06:23:13;92376.44;;;20.09;51.84
39455;BME280;25155;41.890;23.446;2022-07-23T06:25:40;92380.34;;;20.20;51.38
39455;BME280;25155;41.890;23.446;2022-07-23T06:28:07;92376.59;;;20.30;50.98
39455;BME280;25155;41.890;23.446;2022-07-23T06:30:35;92377.84;;;20.41;51.11
39455;BME280;25155;41.890;23.446;2022-07-23T06:33:03;92371.16;;;20.53;50.81
39455;BME280;25155;41.890;23.446;2022-07-23T06:35:31;92369.47;;;20.66;50.70
39455;BME280;25155;41.890;23.446;2022-07-23T06:37:59;92367.69;;;20.78;50.84
39455;BME280;25155;41.890;23.446;2022-07-23T06:40:26;92371.41;;;20.95;50.48
39455;BME280;25155;41.890;23.446;2022-07-23T06:42:53;92372.00;;;21.09;50.37
39455;BME280;25155;41.890;23.446;2022-07-23T06:45:21;92377.09;;;21.23;49.64
39455;BME280;25155;41.890;23.446;2022-07-23T06:47:48;92361.94;;;21.32;49.44
39455;BME280;25155;41.890;23.446;2022-07-23T06:50:17;92368.00;;;21.42;49.46
39455;BME280;25155;41.890;23.446;2022-07-23T06:52:44;92358.13;;;21.51;48.91
39455;BME280;25155;41.890;23.446;2022-07-23T06:55:12;92361.66;;;21.64;49.25
39455;BME280;25155;41.890;23.446;2022-07-23T06:57:39;92362.69;;;21.80;49.87
39455;BME280;25155;41.890;23.446;2022-07-23T07:00:07;92365.88;;;21.95;50.18
39455;BME280;25155;41.890;23.446;2022-07-23T07:02:35;92356.69;;;22.13;49.60
39455;BME280;25155;41.890;23.446;2022-07-23T07:05:06;92359.06;;;22.27;48.51
39455;BME280;25155;41.890;23.446;2022-07-23T07:07:35;92345.94;;;22.09;49.21
39455;BME280;25155;41.890;23.446;2022-07-23T07:10:02;92348.03;;;22.46;48.60
39455;BME280;25155;41.890;23.446;2022-07-23T07:12:30;92352.97;;;22.69;48.59
39455;BME280;25155;41.890;23.446;2022-07-23T07:14:58;92353.56;;;22.87;47.75
39455;BME280;25155;41.890;23.446;2022-07-23T07:17:26;92353.28;;;23.00;46.64
39455;BME280;25155;41.890;23.446;2022-07-23T07:19:53;92352.41;;;23.09;44.83
39455;BME280;25155;41.890;23.446;2022-07-23T07:22:21;92339.81;;;23.18;45.60
39455;BME280;25155;41.890;23.446;2022-07-23T07:24:50;92334.63;;;23.34;45.63
39455;BME280;25155;41.890;23.446;2022-07-23T07:27:17;92338.63;;;23.52;46.20
39455;BME280;25155;41.890;23.446;2022-07-23T07:29:44;92336.84;;;23.69;46.27
39455;BME280;25155;41.890;23.446;2022-07-23T07:32:11;92338.41;;;23.82;46.20
39455;BME280;25155;41.890;23.446;2022-07-23T07:34:39;92338.03;;;23.96;45.74
39455;BME280;25155;41.890;23.446;2022-07-23T07:37:06;92334.38;;;24.13;45.11
39455;BME280;25155;41.890;23.446;2022-07-23T07:39:33;92326.66;;;24.24;43.67
39455;BME280;25155;41.890;23.446;2022-07-23T07:42:03;92316.66;;;24.33;42.80
39455;BME280;25155;41.890;23.446;2022-07-23T07:44:30;92315.75;;;24.41;41.60
39455;BME280;25155;41.890;23.446;2022-07-23T07:46:58;92324.34;;;24.50;41.70
39455;BME280;25155;41.890;23.446;2022-07-23T07:49:25;92313.22;;;24.61;41.80
39455;BME280;25155;41.890;23.446;2022-07-23T07:51:52;92313.19;;;24.73;41.38
39455;BME280;25155;41.890;23.446;2022-07-23T07:54:20;92317.66;;;24.85;40.38
39455;BME280;25155;41.890;23.446;2022-07-23T07:56:47;92310.72;;;24.96;40.93
39455;BME280;25155;41.890;23.446;2022-07-23T07:59:16;92307.53;;;25.07;38.47
39455;BME280;25155;41.890;23.446;2022-07-23T08:01:43;92301.69;;;25.17;37.99
39455;BME280;25155;41.890;23.446;2022-07-23T08:04:11;92297.41;;;25.28;36.23
39455;BME280;25155;41.890;23.446;2022-07-23T08:06:38;92300.34;;;25.39;37.69
39455;BME280;25155;41.890;23.446;2022-07-23T08:09:05;92297.97;;;25.53;37.80
39455;BME280;25155;41.890;23.446;2022-07-23T08:11:33;92290.72;;;25.70;36.54
39455;BME280;25155;41.890;23.446;2022-07-23T08:14:00;92292.16;;;25.83;36.39
39455;BME280;25155;41.890;23.446;2022-07-23T08:16:29;92286.72;;;25.95;37.47
39455;BME280;25155;41.890;23.446;2022-07-23T08:18:56;92285.63;;;26.16;37.60
39455;BME280;25155;41.890;23.446;2022-07-23T08:21:24;92285.91;;;26.30;37.20
39455;BME280;25155;41.890;23.446;2022-07-23T08:23:51;92283.94;;;26.47;38.34
39455;BME280;25155;41.890;23.446;2022-07-23T08:26:19;92276.63;;;26.63;38.21
39455;BME280;25155;41.890;23.446;2022-07-23T08:28:46;92276.81;;;26.74;36.95
39455;BME280;25155;41.890;23.446;2022-07-23T08:31:13;92274.75;;;26.87;37.24
39455;BME280;25155;41.890;23.446;2022-07-23T08:33:43;92268.78;;;26.97;36.77
39455;BME280;25155;41.890;23.446;2022-07-23T08:36:11;92274.41;;;27.12;36.88
39455;BME280;25155;41.890;23.446;2022-07-23T08:38:38;92270.75;;;27.23;36.77
39455;BME280;25155;41.890;23.446;2022-07-23T08:41:07;92266.03;;;27.36;37.47
39455;BME280;25155;41.890;23.446;2022-07-23T08:43:35;92255.09;;;27.49;37.49
39455;BME280;25155;41.890;23.446;2022-07-23T08:46:03;92262.94;;;27.61;36.08
39455;BME280;25155;41.890;23.446;2022-07-23T08:48:32;92259.28;;;27.73;36.67
39455;BME280;25155;41.890;23.446;2022-07-23T08:51:02;92259.13;;;27.89;35.97
39455;BME280;25155;41.890;23.446;2022-07-23T08:53:31;92257.78;;;28.02;35.17
39455;BME280;25155;41.890;23.446;2022-07-23T08:56:00;92246.78;;;28.11;35.74
39455;BME280;25155;41.890;23.446;2022-07-23T08:58:29;92251.63;;;28.32;35.39
39455;BME280;25155;41.890;23.446;2022-07-23T09:00:57;92242.56;;;28.44;34.30
39455;BME280;25155;41.890;23.446;2022-07-23T09:03:26;92248.16;;;28.62;34.01
39455;BME280;25155;41.890;23.446;2022-07-23T09:05:57;92250.59;;;28.78;33.34
39455;BME280;25155;41.890;23.446;2022-07-23T09:08:38;92231.53;;;28.86;32.89
39455;BME280;25155;41.890;23.446;2022-07-23T09:11:06;92240.88;;;29.07;31.66
39455;BME280;25155;41.890;23.446;2022-07-23T09:13:37;92237.19;;;29.19;28.49
39455;BME280;25155;41.890;23.446;2022-07-23T09:16:08;92235.75;;;29.36;28.30
39455;BME280;25155;41.890;23.446;2022-07-23T09:18:39;92231.25;;;29.47;29.85
39455;BME280;25155;41.890;23.446;2022-07-23T09:21:19;92226.91;;;29.28;24.82
39455;BME280;25155;41.890;23.446;2022-07-23T09:23:52;92225.97;;;29.61;26.92
39455;BME280;25155;41.890;23.446;2022-07-23T09:26:29;92219.19;;;29.82;24.79
39455;BME280;25155;41.890;23.446;2022-07-23T09:29:00;92228.50;;;29.99;25.17
39455;BME280;25155;41.890;23.446;2022-07-23T09:31:33;92218.53;;;30.10;24.62
39455;BME280;25155;41.890;23.446;2022-07-23T09:34:16;92214.78;;;30.22;24.46
39455;BME280;25155;41.890;23.446;2022-07-23T09:36:44;92212.94;;;30.37;23.54
39455;BME280;25155;41.890;23.446;2022-07-23T09:39:16;92219.88;;;30.52;23.70
39455;BME280;25155;41.890;23.446;2022-07-23T09:41:49;92221.81;;;30.66;22.75
39455;BME280;25155;41.890;23.446;2022-07-23T09:44:19;92218.38;;;30.73;21.13
39455;BME280;25155;41.890;23.446;2022-07-23T09:46:49;92221.84;;;30.88;22.39
39455;BME280;25155;41.890;23.446;2022-07-23T09:49:21;92214.22;;;31.01;22.43
39455;BME280;25155;41.890;23.446;2022-07-23T09:51:52;92214.22;;;31.04;21.01
39455;BME280;25155;41.890;23.446;2022-07-23T09:54:25;92213.81;;;31.06;20.25
39455;BME280;25155;41.890;23.446;2022-07-23T09:56:54;92208.03;;;31.15;20.53
39455;BME280;25155;41.890;23.446;2022-07-23T09:59:24;92206.50;;;31.21;20.68
39455;BME280;25155;41.890;23.446;2022-07-23T10:01:53;92211.88;;;31.28;19.28
39455;BME280;25155;41.890;23.446;2022-07-23T10:04:23;92201.50;;;31.37;21.64
39455;BME280;25155;41.890;23.446;2022-07-23T10:06:53;92194.97;;;31.60;21.95
39455;BME280;25155;41.890;23.446;2022-07-23T10:09:27;92193.00;;;31.68;18.70
39455;BME280;25155;41.890;23.446;2022-07-23T10:11:56;92190.69;;;31.73;19.66
39455;BME280;25155;41.890;23.446;2022-07-23T10:14:31;92186.81;;;31.81;20.75
39455;BME280;25155;41.890;23.446;2022-07-23T10:17:01;92176.00;;;31.89;20.18
39455;BME280;25155;41.890;23.446;2022-07-23T10:19:30;92184.88;;;31.93;19.21
39455;BME280;25155;41.890;23.446;2022-07-23T10:22:00;92180.97;;;32.01;19.14
39455;BME280;25155;41.890;23.446;2022-07-23T10:24:47;92181.72;;;32.05;19.29
39455;BME280;25155;41.890;23.446;2022-07-23T10:27:39;92179.78;;;32.06;18.99
39455;BME280;25155;41.890;23.446;2022-07-23T10:30:12;92169.72;;;32.21;18.98
39455;BME280;25155;41.890;23.446;2022-07-23T10:32:49;92171.63;;;32.27;20.37
39455;BME280;25155;41.890;23.446;2022-07-23T10:35:29;92170.03;;;32.37;19.89
39455;BME280;25155;41.890;23.446;2022-07-23T10:38:02;92172.31;;;32.42;19.57
39455;BME280;25155;41.890;23.446;2022-07-23T10:40:35;92166.88;;;32.49;19.79
39455;BME280;25155;41.890;23.446;2022-07-23T10:43:13;92170.72;;;32.52;19.91
39455;BME280;25155;41.890;23.446;2022-07-23T10:45:42;92172.63;;;32.55;19.32
39455;BME280;25155;41.890;23.446;2022-07-23T10:48:14;92164.94;;;32.50;19.63
39455;BME280;25155;41.890;23.446;2022-07-23T10:50:43;92164.56;;;32.51;19.37
39455;BME280;25155;41.890;23.446;2022-07-23T10:53:13;92166.06;;;32.60;19.60
39455;BME280;25155;41.890;23.446;2022-07-23T10:55:48;92157.94;;;32.60;19.14
39455;BME280;25155;41.890;23.446;2022-07-23T11:01:34;92152.16;;;32.65;19.35
39455;BME280;25155;41.890;23.446;2022-07-23T11:04:02;92138.59;;;32.72;20.92
39455;BME280;25155;41.890;23.446;2022-07-23T11:09:39;92143.63;;;32.70;19.55
39455;BME280;25155;41.890;23.446;2022-07-23T11:12:33;92136.63;;;32.80;20.24
39455;BME280;25155;41.890;23.446;2022-07-23T11:15:05;92134.19;;;32.96;21.48
39455;BME280;25155;41.890;23.446;2022-07-23T11:17:34;92122.47;;;33.17;21.64
39455;BME280;25155;41.890;23.446;2022-07-23T11:20:19;92134.56;;;33.40;20.16
39455;BME280;25155;41.890;23.446;2022-07-23T11:22:50;92127.50;;;33.53;21.75
39455;BME280;25155;41.890;23.446;2022-07-23T11:25:35;92124.38;;;33.58;19.82
39455;BME280;25155;41.890;23.446;2022-07-23T11:28:15;92114.41;;;33.52;19.41
39455;BME280;25155;41.890;23.446;2022-07-23T11:30:44;92128.75;;;33.45;19.03
39455;BME280;25155;41.890;23.446;2022-07-23T11:33:20;92136.25;;;33.30;20.61
39455;BME280;25155;41.890;23.446;2022-07-23T11:35:49;92126.16;;;33.34;20.65
39455;BME280;25155;41.890;23.446;2022-07-23T11:38:30;92124.16;;;33.42;21.15
39455;BME280;25155;41.890;23.446;2022-07-23T11:40:58;92099.03;;;33.45;20.41
39455;BME280;25155;41.890;23.446;2022-07-23T11:43:27;92110.19;;;33.47;20.70
39455;BME280;25155;41.890;23.446;2022-07-23T11:45:59;92100.53;;;33.46;21.38
39455;BME280;25155;41.890;23.446;2022-07-23T11:48:27;92104.94;;;33.67;21.05
39455;BME280;25155;41.890;23.446;2022-07-23T11:50:56;92105.97;;;33.80;20.69
39455;BME280;25155;41.890;23.446;2022-07-23T11:53:26;92111.56;;;33.97;21.22
39455;BME280;25155;41.890;23.446;2022-07-23T11:55:53;92102.16;;;34.09;20.63
39455;BME280;25155;41.890;23.446;2022-07-23T11:58:21;92105.13;;;34.18;20.69
39455;BME280;25155;41.890;23.446;2022-07-23T12:00:50;92099.22;;;34.27;19.96
39455;BME280;25155;41.890;23.446;2022-07-23T12:03:19;92093.13;;;34.19;19.88
39455;BME280;25155;41.890;23.446;2022-07-23T12:05:46;92108.94;;;34.20;19.31
39455;BME280;25155;41.890;23.446;2022-07-23T12:08:14;92105.00;;;34.29;20.08
39455;BME280;25155;41.890;23.446;2022-07-23T12:10:42;92110.28;;;34.40;19.21
39455;BME280;25155;41.890;23.446;2022-07-23T12:13:12;92096.28;;;34.45;18.91
39455;BME280;25155;41.890;23.446;2022-07-23T12:15:42;92090.00;;;34.51;19.79
39455;BME280;25155;41.890;23.446;2022-07-23T12:18:12;92088.75;;;34.56;19.01
39455;BME280;25155;41.890;23.446;2022-07-23T12:20:42;92076.75;;;34.57;20.25
39455;BME280;25155;41.890;23.446;2022-07-23T12:23:12;92078.09;;;34.72;20.62
39455;BME280;25155;41.890;23.446;2022-07-23T12:25:41;92080.38;;;34.74;18.91
39455;BME280;25155;41.890;23.446;2022-07-23T12:28:10;92088.41;;;34.81;18.65
39455;BME280;25155;41.890;23.446;2022-07-23T12:30:39;92089.16;;;34.82;19.13
39455;BME280;25155;41.890;23.446;2022-07-23T12:33:09;92096.34;;;34.92;19.90
39455;BME280;25155;41.890;23.446;2022-07-23T12:35:40;92082.44;;;34.90;17.74
39455;BME280;25155;41.890;23.446;2022-07-23T12:38:09;92078.56;;;34.91;19.40
39455;BME280;25155;41.890;23.446;2022-07-23T12:40:41;92076.69;;;34.88;18.29
39455;BME280;25155;41.890;23.446;2022-07-23T12:43:11;92081.78;;;34.82;18.05
39455;BME280;25155;41.890;23.446;2022-07-23T12:45:44;92077.16;;;34.83;19.34
39455;BME280;25155;41.890;23.446;2022-07-23T12:48:21;92080.03;;;34.96;19.43
39455;BME280;25155;41.890;23.446;2022-07-23T12:50:54;92070.97;;;35.06;18.31
39455;BME280;25155;41.890;23.446;2022-07-23T12:53:23;92075.97;;;35.07;18.04
39455;BME280;25155;41.890;23.446;2022-07-23T12:55:58;92065.38;;;34.93;17.46
39455;BME280;25155;41.890;23.446;2022-07-23T12:58:27;92073.91;;;34.91;17.62
39455;BME280;25155;41.890;23.446;2022-07-23T13:01:06;92076.13;;;34.97;17.39
39455;BME280;25155;41.890;23.446;2022-07-23T13:03:37;92071.47;;;34.97;18.43
39455;BME280;25155;41.890;23.446;2022-07-23T13:06:08;92068.59;;;35.08;18.45